sensor_id;sensor_type;location;lat;lon;timestamp;P1;durP1;ratioP1;P2;durP2;ratioP2
36371;SDS011;22398;51.346;12.372;2024-02-28T00:02:53;34.70;;;11.45;;
36371;SDS011;22398;51.346;12.372;2024-02-28T00:07:57;23.90;;;11.00;;
36371;SDS011;22398;51.346;12.372;2024-02-28T00:13:01;27.13;;;11.93;;
36371;SDS011;22398;51.346;12.372;2024-02-28T00:18:05;31.30;;;13.70;;
36371;SDS011;22398;51.346;12.372;2024-02-28T00:23:09;33.10;;;12.75;;
36371;SDS011;22398;51.346;12.372;2024-02-28T00:28:14;28.40;;;12.50;;
36371;SDS011;22398;51.346;12.372;2024-02-28T00:33:17;25.43;;;11.37;;
36371;SDS011;22398;51.346;12.372;2024-02-28T00:38:20;29.88;;;11.57;;
36371;SDS011;22398;51.346;12.372;2024-02-28T00:43:25;29.35;;;12.82;;
36371;SDS011;22398;51.346;12.372;2024-02-28T00:48:28;33.77;;;12.07;;
36371;SDS011;22398;51.346;12.372;2024-02-28T00:53:31;30.83;;;13.00;;
36371;SDS011;22398;51.346;12.372;2024-02-28T00:58:36;29.77;;;12.77;;
36371;SDS011;22398;51.346;12.372;2024-02-28T01:03:40;32.47;;;14.10;;
36371;SDS011;22398;51.346;12.372;2024-02-28T01:08:43;32.63;;;14.43;;
36371;SDS011;22398;51.346;12.372;2024-02-28T01:13:48;37.42;;;13.88;;
36371;SDS011;22398;51.346;12.372;2024-02-28T01:18:52;33.60;;;14.05;;
36371;SDS011;22398;51.346;12.372;2024-02-28T01:23:55;29.85;;;13.25;;
36371;SDS011;22398;51.346;12.372;2024-02-28T01:29:00;29.50;;;13.65;;
36371;SDS011;22398;51.346;12.372;2024-02-28T01:34:04;31.45;;;13.13;;
36371;SDS011;22398;51.346;12.372;2024-02-28T01:39:08;29.55;;;12.73;;
36371;SDS011;22398;51.346;12.372;2024-02-28T01:44:13;28.98;;;13.85;;
36371;SDS011;22398;51.346;12.372;2024-02-28T01:54:21;34.03;;;13.82;;
36371;SDS011;22398;51.346;12.372;2024-02-28T01:59:26;33.67;;;13.15;;
36371;SDS011;22398;51.346;12.372;2024-02-28T02:04:31;33.10;;;13.52;;
36371;SDS011;22398;51.346;12.372;2024-02-28T02:09:35;33.72;;;14.57;;
36371;SDS011;22398;51.346;12.372;2024-02-28T02:14:40;32.38;;;14.00;;
36371;SDS011;22398;51.346;12.372;2024-02-28T02:19:43;33.87;;;14.20;;
36371;SDS011;22398;51.346;12.372;2024-02-28T02:24:49;36.38;;;14.02;;
36371;SDS011;22398;51.346;12.372;2024-02-28T02:29:52;36.90;;;14.87;;
36371;SDS011;22398;51.346;12.372;2024-02-28T02:34:55;37.60;;;14.88;;
36371;SDS011;22398;51.346;12.372;2024-02-28T02:40:00;40.08;;;15.95;;
36371;SDS011;22398;51.346;12.372;2024-02-28T02:45:04;34.00;;;15.48;;
36371;SDS011;22398;51.346;12.372;2024-02-28T02:50:08;33.65;;;15.80;;
36371;SDS011;22398;51.346;12.372;2024-02-28T02:55:13;36.05;;;15.20;;
36371;SDS011;22398;51.346;12.372;2024-02-28T03:00:17;40.05;;;16.08;;
36371;SDS011;22398;51.346;12.372;2024-02-28T03:05:20;35.50;;;15.18;;
36371;SDS011;22398;51.346;12.372;2024-02-28T03:10:25;28.75;;;13.82;;
36371;SDS011;22398;51.346;12.372;2024-02-28T03:15:28;32.30;;;15.37;;
36371;SDS011;22398;51.346;12.372;2024-02-28T03:20:32;34.38;;;15.45;;
36371;SDS011;22398;51.346;12.372;2024-02-28T03:25:37;32.53;;;13.68;;
36371;SDS011;22398;51.346;12.372;2024-02-28T03:30:40;33.30;;;16.00;;
36371;SDS011;22398;51.346;12.372;2024-02-28T03:35:44;31.42;;;14.15;;
36371;SDS011;22398;51.346;12.372;2024-02-28T03:40:49;29.33;;;14.02;;
36371;SDS011;22398;51.346;12.372;2024-02-28T03:45:52;32.93;;;14.50;;
36371;SDS011;22398;51.346;12.372;2024-02-28T03:50:56;27.67;;;13.32;;
36371;SDS011;22398;51.346;12.372;2024-02-28T03:56:00;30.33;;;13.45;;
36371;SDS011;22398;51.346;12.372;2024-02-28T04:01:04;32.63;;;14.60;;
36371;SDS011;22398;51.346;12.372;2024-02-28T04:06:08;33.55;;;14.82;;
36371;SDS011;22398;51.346;12.372;2024-02-28T04:11:13;28.30;;;14.32;;
36371;SDS011;22398;51.346;12.372;2024-02-28T04:16:18;35.05;;;15.73;;
36371;SDS011;22398;51.346;12.372;2024-02-28T04:21:21;36.38;;;16.23;;
36371;SDS011;22398;51.346;12.372;2024-02-28T04:26:26;29.50;;;14.93;;
36371;SDS011;22398;51.346;12.372;2024-02-28T04:31:29;35.07;;;16.33;;
36371;SDS011;22398;51.346;12.372;2024-02-28T04:36:33;39.15;;;16.13;;
36371;SDS011;22398;51.346;12.372;2024-02-28T04:41:38;34.60;;;16.75;;
36371;SDS011;22398;51.346;12.372;2024-02-28T04:46:41;39.90;;;19.17;;
36371;SDS011;22398;51.346;12.372;2024-02-28T04:51:44;45.80;;;20.38;;
36371;SDS011;22398;51.346;12.372;2024-02-28T04:56:49;41.45;;;19.77;;
36371;SDS011;22398;51.346;12.372;2024-02-28T05:01:54;39.67;;;19.00;;
36371;SDS011;22398;51.346;12.372;2024-02-28T05:06:57;42.83;;;19.10;;
36371;SDS011;22398;51.346;12.372;2024-02-28T05:12:02;41.78;;;19.30;;
36371;SDS011;22398;51.346;12.372;2024-02-28T05:17:06;39.08;;;18.90;;
36371;SDS011;22398;51.346;12.372;2024-02-28T05:22:09;37.30;;;18.92;;
36371;SDS011;22398;51.346;12.372;2024-02-28T05:27:14;33.08;;;16.35;;
36371;SDS011;22398;51.346;12.372;2024-02-28T05:32:18;33.87;;;16.73;;
36371;SDS011;22398;51.346;12.372;2024-02-28T05:37:22;32.38;;;15.48;;
36371;SDS011;22398;51.346;12.372;2024-02-28T05:42:27;32.10;;;14.93;;
36371;SDS011;22398;51.346;12.372;2024-02-28T05:47:32;36.08;;;15.50;;
36371;SDS011;22398;51.346;12.372;2024-02-28T05:52:36;34.65;;;15.90;;
36371;SDS011;22398;51.346;12.372;2024-02-28T05:57:40;30.13;;;13.90;;
36371;SDS011;22398;51.346;12.372;2024-02-28T06:02:44;32.63;;;16.23;;
36371;SDS011;22398;51.346;12.372;2024-02-28T06:07:48;36.40;;;16.23;;
36371;SDS011;22398;51.346;12.372;2024-02-28T06:12:53;30.02;;;14.45;;
36371;SDS011;22398;51.346;12.372;2024-02-28T06:17:57;34.92;;;15.18;;
36371;SDS011;22398;51.346;12.372;2024-02-28T06:23:01;30.40;;;13.97;;
36371;SDS011;22398;51.346;12.372;2024-02-28T06:28:17;35.50;;;15.27;;
36371;SDS011;22398;51.346;12.372;2024-02-28T06:33:21;33.25;;;15.85;;
36371;SDS011;22398;51.346;12.372;2024-02-28T06:38:24;26.73;;;13.93;;
36371;SDS011;22398;51.346;12.372;2024-02-28T06:43:29;33.88;;;16.23;;
36371;SDS011;22398;51.346;12.372;2024-02-28T06:48:33;29.73;;;15.23;;
36371;SDS011;22398;51.346;12.372;2024-02-28T06:53:37;31.77;;;15.27;;
36371;SDS011;22398;51.346;12.372;2024-02-28T06:58:41;34.50;;;14.93;;
36371;SDS011;22398;51.346;12.372;2024-02-28T07:03:45;31.10;;;15.43;;
36371;SDS011;22398;51.346;12.372;2024-02-28T07:08:48;32.97;;;16.02;;
36371;SDS011;22398;51.346;12.372;2024-02-28T07:13:53;31.90;;;15.18;;
36371;SDS011;22398;51.346;12.372;2024-02-28T07:18:59;37.15;;;15.88;;
36371;SDS011;22398;51.346;12.372;2024-02-28T07:24:05;32.90;;;15.48;;
36371;SDS011;22398;51.346;12.372;2024-02-28T07:29:10;40.70;;;17.52;;
36371;SDS011;22398;51.346;12.372;2024-02-28T07:34:14;51.60;;;22.33;;
36371;SDS011;22398;51.346;12.372;2024-02-28T07:39:17;50.47;;;22.63;;
36371;SDS011;22398;51.346;12.372;2024-02-28T07:44:23;47.35;;;23.13;;
36371;SDS011;22398;51.346;12.372;2024-02-28T07:49:27;57.10;;;23.40;;
36371;SDS011;22398;51.346;12.372;2024-02-28T07:54:30;49.42;;;23.13;;
36371;SDS011;22398;51.346;12.372;2024-02-28T07:59:39;52.20;;;24.55;;
36371;SDS011;22398;51.346;12.372;2024-02-28T08:04:42;53.58;;;23.58;;
36371;SDS011;22398;51.346;12.372;2024-02-28T08:09:46;54.63;;;23.55;;
36371;SDS011;22398;51.346;12.372;2024-02-28T08:14:51;47.13;;;22.70;;
36371;SDS011;22398;51.346;12.372;2024-02-28T08:19:54;48.20;;;23.70;;
36371;SDS011;22398;51.346;12.372;2024-02-28T08:24:57;49.58;;;23.27;;
36371;SDS011;22398;51.346;12.372;2024-02-28T08:30:02;45.22;;;22.10;;
36371;SDS011;22398;51.346;12.372;2024-02-28T08:35:07;47.65;;;23.42;;
36371;SDS011;22398;51.346;12.372;2024-02-28T08:40:11;45.78;;;21.92;;
36371;SDS011;22398;51.346;12.372;2024-02-28T08:45:16;39.38;;;20.27;;
36371;SDS011;22398;51.346;12.372;2024-02-28T08:50:19;43.70;;;20.63;;
36371;SDS011;22398;51.346;12.372;2024-02-28T08:55:23;46.42;;;22.45;;
36371;SDS011;22398;51.346;12.372;2024-02-28T09:00:28;44.33;;;22.15;;
36371;SDS011;22398;51.346;12.372;2024-02-28T09:10:35;39.33;;;20.63;;
36371;SDS011;22398;51.346;12.372;2024-02-28T09:15:40;47.83;;;21.73;;
36371;SDS011;22398;51.346;12.372;2024-02-28T09:20:43;41.17;;;21.23;;
36371;SDS011;22398;51.346;12.372;2024-02-28T09:25:47;37.72;;;19.98;;
36371;SDS011;22398;51.346;12.372;2024-02-28T09:30:52;41.03;;;20.35;;
36371;SDS011;22398;51.346;12.372;2024-02-28T09:35:55;41.08;;;21.75;;
36371;SDS011;22398;51.346;12.372;2024-02-28T09:40:58;41.28;;;20.45;;
36371;SDS011;22398;51.346;12.372;2024-02-28T09:46:04;45.25;;;20.92;;
36371;SDS011;22398;51.346;12.372;2024-02-28T09:51:08;49.55;;;23.13;;
36371;SDS011;22398;51.346;12.372;2024-02-28T09:56:13;43.33;;;21.70;;
36371;SDS011;22398;51.346;12.372;2024-02-28T10:01:19;41.20;;;20.63;;
36371;SDS011;22398;51.346;12.372;2024-02-28T10:06:24;42.30;;;21.52;;
36371;SDS011;22398;51.346;12.372;2024-02-28T10:11:28;48.90;;;21.73;;
36371;SDS011;22398;51.346;12.372;2024-02-28T10:16:32;34.25;;;18.42;;
36371;SDS011;22398;51.346;12.372;2024-02-28T10:21:36;40.13;;;21.88;;
36371;SDS011;22398;51.346;12.372;2024-02-28T10:26:43;37.28;;;19.17;;
36371;SDS011;22398;51.346;12.372;2024-02-28T10:31:48;39.30;;;19.88;;
36371;SDS011;22398;51.346;12.372;2024-02-28T10:36:52;38.50;;;19.80;;
36371;SDS011;22398;51.346;12.372;2024-02-28T10:41:55;30.50;;;18.25;;
36371;SDS011;22398;51.346;12.372;2024-02-28T10:47:04;37.33;;;18.75;;
36371;SDS011;22398;51.346;12.372;2024-02-28T10:52:14;33.25;;;17.77;;
36371;SDS011;22398;51.346;12.372;2024-02-28T10:57:20;34.65;;;18.42;;
36371;SDS011;22398;51.346;12.372;2024-02-28T11:02:28;33.47;;;17.75;;
36371;SDS011;22398;51.346;12.372;2024-02-28T11:07:32;32.67;;;17.13;;
36371;SDS011;22398;51.346;12.372;2024-02-28T11:12:36;27.10;;;14.90;;
36371;SDS011;22398;51.346;12.372;2024-02-28T11:17:40;29.17;;;15.75;;
36371;SDS011;22398;51.346;12.372;2024-02-28T11:22:44;28.53;;;15.97;;
36371;SDS011;22398;51.346;12.372;2024-02-28T11:27:47;29.35;;;14.85;;
36371;SDS011;22398;51.346;12.372;2024-02-28T11:32:53;27.83;;;15.00;;
36371;SDS011;22398;51.346;12.372;2024-02-28T11:38:06;23.20;;;13.05;;
36371;SDS011;22398;51.346;12.372;2024-02-28T11:43:11;25.33;;;13.70;;
36371;SDS011;22398;51.346;12.372;2024-02-28T11:48:16;26.35;;;15.20;;
36371;SDS011;22398;51.346;12.372;2024-02-28T11:53:19;26.00;;;14.18;;
36371;SDS011;22398;51.346;12.372;2024-02-28T11:58:23;24.52;;;12.90;;
36371;SDS011;22398;51.346;12.372;2024-02-28T12:03:28;24.42;;;13.18;;
36371;SDS011;22398;51.346;12.372;2024-02-28T12:08:32;21.47;;;12.03;;
36371;SDS011;22398;51.346;12.372;2024-02-28T12:13:36;21.20;;;11.77;;
36371;SDS011;22398;51.346;12.372;2024-02-28T12:18:41;25.33;;;11.67;;
36371;SDS011;22398;51.346;12.372;2024-02-28T12:23:45;23.80;;;12.63;;
36371;SDS011;22398;51.346;12.372;2024-02-28T12:28:50;22.27;;;11.25;;
36371;SDS011;22398;51.346;12.372;2024-02-28T12:33:55;20.52;;;10.82;;
36371;SDS011;22398;51.346;12.372;2024-02-28T12:38:58;21.77;;;12.30;;
36371;SDS011;22398;51.346;12.372;2024-02-28T12:44:02;23.98;;;13.27;;
36371;SDS011;22398;51.346;12.372;2024-02-28T12:49:06;22.58;;;11.48;;
36371;SDS011;22398;51.346;12.372;2024-02-28T12:54:11;23.17;;;11.55;;
36371;SDS011;22398;51.346;12.372;2024-02-28T12:59:15;22.55;;;12.27;;
36371;SDS011;22398;51.346;12.372;2024-02-28T13:04:20;17.50;;;10.55;;
36371;SDS011;22398;51.346;12.372;2024-02-28T13:09:23;21.13;;;11.10;;
36371;SDS011;22398;51.346;12.372;2024-02-28T13:14:27;16.40;;;9.73;;
36371;SDS011;22398;51.346;12.372;2024-02-28T13:19:32;21.02;;;11.40;;
36371;SDS011;22398;51.346;12.372;2024-02-28T13:24:35;20.10;;;11.67;;
36371;SDS011;22398;51.346;12.372;2024-02-28T13:29:38;23.90;;;10.55;;
36371;SDS011;22398;51.346;12.372;2024-02-28T13:34:43;18.90;;;9.63;;
36371;SDS011;22398;51.346;12.372;2024-02-28T13:39:50;17.58;;;9.85;;
36371;SDS011;22398;51.346;12.372;2024-02-28T13:44:53;17.02;;;9.55;;
36371;SDS011;22398;51.346;12.372;2024-02-28T13:49:58;17.30;;;8.98;;
36371;SDS011;22398;51.346;12.372;2024-02-28T13:55:02;17.15;;;9.80;;
36371;SDS011;22398;51.346;12.372;2024-02-28T14:00:06;18.33;;;8.77;;
36371;SDS011;22398;51.346;12.372;2024-02-28T14:05:14;17.35;;;8.90;;
36371;SDS011;22398;51.346;12.372;2024-02-28T14:10:18;17.90;;;8.75;;
36371;SDS011;22398;51.346;12.372;2024-02-28T14:15:21;15.18;;;8.00;;
36371;SDS011;22398;51.346;12.372;2024-02-28T14:25:31;19.45;;;8.88;;
36371;SDS011;22398;51.346;12.372;2024-02-28T14:30:35;15.35;;;7.78;;
36371;SDS011;22398;51.346;12.372;2024-02-28T14:35:40;16.48;;;7.45;;
36371;SDS011;22398;51.346;12.372;2024-02-28T14:40:43;17.30;;;8.50;;
36371;SDS011;22398;51.346;12.372;2024-02-28T14:45:47;13.93;;;7.60;;
36371;SDS011;22398;51.346;12.372;2024-02-28T14:50:55;15.95;;;8.05;;
36371;SDS011;22398;51.346;12.372;2024-02-28T14:55:59;15.10;;;8.10;;
36371;SDS011;22398;51.346;12.372;2024-02-28T15:01:03;16.48;;;7.75;;
36371;SDS011;22398;51.346;12.372;2024-02-28T15:06:08;17.55;;;9.40;;
36371;SDS011;22398;51.346;12.372;2024-02-28T15:11:11;16.45;;;8.20;;
36371;SDS011;22398;51.346;12.372;2024-02-28T15:16:15;16.67;;;8.13;;
36371;SDS011;22398;51.346;12.372;2024-02-28T15:21:20;17.70;;;8.40;;
36371;SDS011;22398;51.346;12.372;2024-02-28T15:26:25;15.60;;;8.52;;
36371;SDS011;22398;51.346;12.372;2024-02-28T15:31:43;20.42;;;8.85;;
36371;SDS011;22398;51.346;12.372;2024-02-28T15:36:47;16.20;;;8.30;;
36371;SDS011;22398;51.346;12.372;2024-02-28T15:41:51;18.08;;;9.48;;
36371;SDS011;22398;51.346;12.372;2024-02-28T15:46:55;21.02;;;8.80;;
36371;SDS011;22398;51.346;12.372;2024-02-28T15:52:00;20.15;;;9.60;;
36371;SDS011;22398;51.346;12.372;2024-02-28T15:57:03;17.77;;;9.95;;
36371;SDS011;22398;51.346;12.372;2024-02-28T16:02:07;20.98;;;8.95;;
36371;SDS011;22398;51.346;12.372;2024-02-28T16:07:13;18.38;;;8.43;;
36371;SDS011;22398;51.346;12.372;2024-02-28T16:12:17;19.60;;;9.90;;
36371;SDS011;22398;51.346;12.372;2024-02-28T16:17:21;21.25;;;8.75;;
36371;SDS011;22398;51.346;12.372;2024-02-28T16:22:25;17.10;;;9.00;;
36371;SDS011;22398;51.346;12.372;2024-02-28T16:27:29;17.90;;;9.30;;
36371;SDS011;22398;51.346;12.372;2024-02-28T16:32:32;14.02;;;7.55;;
36371;SDS011;22398;51.346;12.372;2024-02-28T16:37:37;20.83;;;8.43;;
36371;SDS011;22398;51.346;12.372;2024-02-28T16:42:41;14.88;;;7.32;;
36371;SDS011;22398;51.346;12.372;2024-02-28T16:47:44;14.80;;;7.03;;
36371;SDS011;22398;51.346;12.372;2024-02-28T16:52:49;14.55;;;7.50;;
36371;SDS011;22398;51.346;12.372;2024-02-28T16:57:53;15.07;;;7.13;;
36371;SDS011;22398;51.346;12.372;2024-02-28T17:02:57;14.55;;;7.40;;
36371;SDS011;22398;51.346;12.372;2024-02-28T17:08:01;25.63;;;7.57;;
36371;SDS011;22398;51.346;12.372;2024-02-28T17:13:06;17.25;;;7.10;;
36371;SDS011;22398;51.346;12.372;2024-02-28T17:18:13;15.13;;;7.50;;
36371;SDS011;22398;51.346;12.372;2024-02-28T17:23:18;15.73;;;7.18;;
36371;SDS011;22398;51.346;12.372;2024-02-28T17:28:21;16.80;;;8.30;;
36371;SDS011;22398;51.346;12.372;2024-02-28T17:33:28;16.15;;;7.55;;
36371;SDS011;22398;51.346;12.372;2024-02-28T17:38:33;19.35;;;7.97;;
36371;SDS011;22398;51.346;12.372;2024-02-28T17:43:37;19.50;;;8.93;;
36371;SDS011;22398;51.346;12.372;2024-02-28T17:48:40;19.77;;;8.27;;
36371;SDS011;22398;51.346;12.372;2024-02-28T17:53:46;21.83;;;8.60;;
36371;SDS011;22398;51.346;12.372;2024-02-28T17:58:51;20.58;;;9.45;;
36371;SDS011;22398;51.346;12.372;2024-02-28T18:03:54;21.20;;;8.38;;
36371;SDS011;22398;51.346;12.372;2024-02-28T18:08:59;18.75;;;8.25;;
36371;SDS011;22398;51.346;12.372;2024-02-28T18:14:02;19.57;;;8.60;;
36371;SDS011;22398;51.346;12.372;2024-02-28T18:19:06;20.42;;;9.95;;
36371;SDS011;22398;51.346;12.372;2024-02-28T18:24:11;27.00;;;10.68;;
36371;SDS011;22398;51.346;12.372;2024-02-28T18:29:15;22.95;;;10.45;;
36371;SDS011;22398;51.346;12.372;2024-02-28T18:34:18;28.25;;;11.65;;
36371;SDS011;22398;51.346;12.372;2024-02-28T18:39:23;33.33;;;13.68;;
36371;SDS011;22398;51.346;12.372;2024-02-28T18:49:37;37.22;;;13.48;;
36371;SDS011;22398;51.346;12.372;2024-02-28T18:54:41;26.38;;;12.57;;
36371;SDS011;22398;51.346;12.372;2024-02-28T18:59:45;24.20;;;10.10;;
36371;SDS011;22398;51.346;12.372;2024-02-28T19:04:49;33.00;;;15.38;;
36371;SDS011;22398;51.346;12.372;2024-02-28T19:09:53;28.83;;;13.48;;
36371;SDS011;22398;51.346;12.372;2024-02-28T19:14:57;26.53;;;11.67;;
36371;SDS011;22398;51.346;12.372;2024-02-28T19:20:00;32.25;;;14.55;;
36371;SDS011;22398;51.346;12.372;2024-02-28T19:25:05;28.20;;;13.85;;
36371;SDS011;22398;51.346;12.372;2024-02-28T19:35:12;35.50;;;15.05;;
36371;SDS011;22398;51.346;12.372;2024-02-28T19:40:17;32.22;;;14.88;;
36371;SDS011;22398;51.346;12.372;2024-02-28T19:45:20;34.90;;;15.03;;
36371;SDS011;22398;51.346;12.372;2024-02-28T19:50:24;30.80;;;14.77;;
36371;SDS011;22398;51.346;12.372;2024-02-28T19:55:29;36.08;;;16.67;;
36371;SDS011;22398;51.346;12.372;2024-02-28T20:00:32;35.37;;;16.60;;
36371;SDS011;22398;51.346;12.372;2024-02-28T20:05:36;43.33;;;18.17;;
36371;SDS011;22398;51.346;12.372;2024-02-28T20:10:42;45.83;;;17.65;;
36371;SDS011;22398;51.346;12.372;2024-02-28T20:15:46;27.95;;;14.75;;
36371;SDS011;22398;51.346;12.372;2024-02-28T20:20:49;39.90;;;16.63;;
36371;SDS011;22398;51.346;12.372;2024-02-28T20:25:54;36.72;;;16.70;;
36371;SDS011;22398;51.346;12.372;2024-02-28T20:30:58;38.67;;;16.73;;
36371;SDS011;22398;51.346;12.372;2024-02-28T20:36:02;39.58;;;17.35;;
36371;SDS011;22398;51.346;12.372;2024-02-28T20:41:06;41.42;;;17.67;;
36371;SDS011;22398;51.346;12.372;2024-02-28T20:46:10;31.30;;;15.43;;
36371;SDS011;22398;51.346;12.372;2024-02-28T20:51:13;43.25;;;16.80;;
36371;SDS011;22398;51.346;12.372;2024-02-28T20:56:18;40.70;;;17.85;;
36371;SDS011;22398;51.346;12.372;2024-02-28T21:01:21;42.77;;;17.87;;
36371;SDS011;22398;51.346;12.372;2024-02-28T21:06:26;39.65;;;17.88;;
36371;SDS011;22398;51.346;12.372;2024-02-28T21:11:32;40.70;;;19.27;;
36371;SDS011;22398;51.346;12.372;2024-02-28T21:16:35;42.17;;;18.27;;
36371;SDS011;22398;51.346;12.372;2024-02-28T21:21:39;36.90;;;17.45;;
36371;SDS011;22398;51.346;12.372;2024-02-28T21:26:44;37.92;;;17.48;;
36371;SDS011;22398;51.346;12.372;2024-02-28T21:31:47;38.53;;;17.20;;
36371;SDS011;22398;51.346;12.372;2024-02-28T21:36:50;36.95;;;17.00;;
36371;SDS011;22398;51.346;12.372;2024-02-28T21:41:55;38.33;;;17.65;;
36371;SDS011;22398;51.346;12.372;2024-02-28T21:46:59;36.00;;;17.33;;
36371;SDS011;22398;51.346;12.372;2024-02-28T21:52:03;42.00;;;17.70;;
36371;SDS011;22398;51.346;12.372;2024-02-28T21:57:08;35.90;;;16.63;;
36371;SDS011;22398;51.346;12.372;2024-02-28T22:02:13;33.47;;;15.52;;
36371;SDS011;22398;51.346;12.372;2024-02-28T22:07:17;33.22;;;15.90;;
36371;SDS011;22398;51.346;12.372;2024-02-28T22:12:21;28.70;;;14.48;;
36371;SDS011;22398;51.346;12.372;2024-02-28T22:17:25;36.53;;;14.83;;
36371;SDS011;22398;51.346;12.372;2024-02-28T22:22:28;33.22;;;15.10;;
36371;SDS011;22398;51.346;12.372;2024-02-28T22:27:33;32.85;;;14.40;;
36371;SDS011;22398;51.346;12.372;2024-02-28T22:32:36;32.17;;;15.13;;
36371;SDS011;22398;51.346;12.372;2024-02-28T22:37:40;28.15;;;12.63;;
36371;SDS011;22398;51.346;12.372;2024-02-28T22:42:45;31.35;;;14.35;;
36371;SDS011;22398;51.346;12.372;2024-02-28T22:47:48;29.27;;;12.60;;
36371;SDS011;22398;51.346;12.372;2024-02-28T22:52:52;31.98;;;13.63;;
36371;SDS011;22398;51.346;12.372;2024-02-28T22:57:56;30.70;;;13.60;;
36371;SDS011;22398;51.346;12.372;2024-02-28T23:03:00;32.87;;;14.17;;
36371;SDS011;22398;51.346;12.372;2024-02-28T23:08:07;34.45;;;13.88;;
36371;SDS011;22398;51.346;12.372;2024-02-28T23:13:13;31.92;;;14.32;;
36371;SDS011;22398;51.346;12.372;2024-02-28T23:18:17;31.90;;;13.70;;
36371;SDS011;22398;51.346;12.372;2024-02-28T23:23:21;33.53;;;14.52;;
36371;SDS011;22398;51.346;12.372;2024-02-28T23:28:26;37.72;;;15.35;;
36371;SDS011;22398;51.346;12.372;2024-02-28T23:33:29;35.72;;;15.07;;
36371;SDS011;22398;51.346;12.372;2024-02-28T23:38:33;33.03;;;16.02;;
36371;SDS011;22398;51.346;12.372;2024-02-28T23:43:38;33.40;;;14.07;;
36371;SDS011;22398;51.346;12.372;2024-02-28T23:48:41;30.38;;;14.15;;
36371;SDS011;22398;51.346;12.372;2024-02-28T23:53:45;30.17;;;13.85;;
36371;SDS011;22398;51.346;12.372;2024-02-28T23:58:49;32.03;;;14.45;;
